createdAt,value
2023-02-23T00:03:30.537Z,0.57
2023-02-23T00:08:36.157Z,0.57
2023-02-23T00:13:46.232Z,0.56
2023-02-23T00:19:00.489Z,0.54
2023-02-23T00:24:09.056Z,0.50
2023-02-23T00:29:18.487Z,0.43
2023-02-23T00:34:25.588Z,0.37
2023-02-23T00:39:29.665Z,0.35
2023-02-23T00:44:35.005Z,0.31
2023-02-23T00:49:38.463Z,0.25
2023-02-23T00:54:41.750Z,0.26
2023-02-23T00:59:44.244Z,0.26
2023-02-23T01:04:46.812Z,0.21
2023-02-23T01:09:49.096Z,0.14
2023-02-23T01:14:51.679Z,0.09
2023-02-23T01:19:55.334Z,0.08
2023-02-23T01:24:57.874Z,0.06
2023-02-23T01:30:00.962Z,0.02
2023-02-23T01:35:09.409Z,-0.05
2023-02-23T01:40:29.189Z,-0.11
2023-02-23T01:45:34.881Z,-0.16
2023-02-23T01:51:20.905Z,-0.19
2023-02-23T01:56:31.625Z,-0.23
2023-02-23T02:01:35.910Z,-0.24
2023-02-23T02:06:40.190Z,-0.24
2023-02-23T02:11:46.390Z,-0.25
2023-02-23T02:17:37.512Z,-0.28
2023-02-23T02:23:23.521Z,-0.37
2023-02-23T02:28:33.185Z,-0.42
2023-02-23T02:33:48.883Z,-0.47
2023-02-23T02:39:23.945Z,-0.50
2023-02-23T02:44:29.466Z,-0.53
2023-02-23T02:49:47.932Z,-0.54
2023-02-23T02:54:58.247Z,-0.54
2023-02-23T03:00:24.024Z,-0.54
2023-02-23T03:06:04.234Z,-0.56
2023-02-23T03:11:31.061Z,-0.59
2023-02-23T03:17:23.418Z,-0.62
2023-02-23T03:22:47.051Z,-0.65
2023-02-23T03:28:33.632Z,-0.66
2023-02-23T03:34:28.502Z,-0.68
2023-02-23T03:40:15.293Z,-0.68
2023-02-23T03:45:43.348Z,-0.62
2023-02-23T03:51:18.407Z,-0.59
2023-02-23T03:56:53.046Z,-0.55
2023-02-23T04:02:27.504Z,-0.56
2023-02-23T04:07:53.494Z,-0.56
2023-02-23T04:13:16.667Z,-0.58
2023-02-23T04:18:25.349Z,-0.63
2023-02-23T04:23:34.856Z,-0.69
2023-02-23T04:28:37.274Z,-0.74
2023-02-23T04:33:40.222Z,-0.79
2023-02-23T04:38:42.541Z,-0.83
2023-02-23T04:43:44.934Z,-0.86
2023-02-23T04:48:47.732Z,-0.88
2023-02-23T04:53:50.199Z,-0.90
2023-02-23T04:58:53.388Z,-0.92
2023-02-23T05:04:00.449Z,-0.95
2023-02-23T05:09:06.240Z,-0.97
2023-02-23T05:14:09.924Z,-0.98
2023-02-23T05:19:12.610Z,-0.99
2023-02-23T05:24:17.824Z,-1.02
2023-02-23T05:29:20.412Z,-1.02
2023-02-23T05:34:22.633Z,-1.02
2023-02-23T05:39:25.496Z,-1.03
2023-02-23T05:44:28.743Z,-1.04
2023-02-23T05:49:31.069Z,-1.04
2023-02-23T05:54:33.574Z,-1.04
2023-02-23T05:59:36.172Z,-1.03
2023-02-23T06:04:38.710Z,-0.99
2023-02-23T06:09:44.301Z,-0.95
2023-02-23T06:14:47.960Z,-0.89
2023-02-23T06:19:50.910Z,-0.81
2023-02-23T06:24:53.281Z,-0.74
2023-02-23T06:29:55.695Z,-0.65
2023-02-23T06:34:58.789Z,-0.54
2023-02-23T06:40:01.897Z,-0.41
2023-02-23T06:45:05.921Z,-0.29
2023-02-23T06:50:09.812Z,-0.15
2023-02-23T06:55:13.295Z,-0.05
2023-02-23T07:00:17.843Z,0.08
2023-02-23T07:05:25.871Z,0.23
2023-02-23T07:10:31.165Z,0.36
2023-02-23T07:15:36.382Z,0.49
2023-02-23T07:20:38.633Z,0.69
2023-02-23T07:25:41.226Z,0.88
2023-02-23T07:30:43.745Z,1.04
2023-02-23T07:35:45.960Z,1.21
2023-02-23T07:40:50.632Z,1.40
2023-02-23T07:45:52.855Z,1.58
2023-02-23T07:50:55.220Z,1.76
2023-02-23T07:55:58.279Z,1.93
2023-02-23T08:01:00.345Z,2.12
2023-02-23T08:06:02.827Z,2.30
2023-02-23T08:11:05.798Z,2.50
2023-02-23T08:16:08.228Z,2.64
2023-02-23T08:21:10.527Z,2.79
2023-02-23T08:26:12.674Z,2.98
2023-02-23T08:31:18.688Z,3.16
2023-02-23T08:36:21.167Z,3.38
2023-02-23T08:41:23.206Z,3.58
2023-02-23T08:46:26.248Z,3.75
2023-02-23T08:51:28.658Z,3.89
2023-02-23T08:56:31.859Z,4.09
2023-02-23T09:01:34.910Z,4.33
2023-02-23T09:06:37.541Z,4.59
2023-02-23T09:11:39.498Z,4.86
2023-02-23T09:16:41.719Z,5.04
2023-02-23T09:21:44.655Z,5.15
2023-02-23T09:26:46.618Z,5.28
2023-02-23T09:31:48.873Z,5.46
2023-02-23T09:36:52.201Z,5.66
2023-02-23T09:42:13.976Z,5.91
2023-02-23T09:47:36.539Z,6.20
2023-02-23T09:53:05.782Z,6.46
2023-02-23T09:58:25.237Z,6.69
2023-02-23T10:03:33.457Z,6.96
2023-02-23T10:08:47.120Z,7.15
2023-02-23T10:13:49.142Z,7.32
2023-02-23T10:19:00.941Z,7.50
2023-02-23T10:24:14.153Z,7.71
2023-02-23T10:29:31.376Z,7.93
2023-02-23T10:34:35.365Z,8.17
2023-02-23T10:39:37.659Z,8.31
2023-02-23T10:44:45.771Z,8.36
2023-02-23T10:49:51.849Z,8.42
2023-02-23T10:54:54.224Z,8.49
2023-02-23T11:00:17.123Z,8.60
2023-02-23T11:05:46.067Z,8.78
2023-02-23T11:10:59.934Z,9.03
2023-02-23T11:16:10.483Z,9.16
2023-02-23T11:21:21.952Z,9.29
2023-02-23T11:26:32.848Z,9.51
2023-02-23T11:31:36.693Z,9.68
2023-02-23T11:36:39.227Z,9.93
2023-02-23T11:41:41.966Z,10.11
2023-02-23T11:46:45.916Z,10.22
2023-02-23T11:51:50.634Z,10.38
2023-02-23T11:56:55.417Z,10.52
2023-02-23T12:02:19.198Z,10.71
2023-02-23T12:07:43.102Z,10.88
2023-02-23T12:13:02.695Z,10.98
2023-02-23T12:18:19.158Z,11.14
2023-02-23T12:23:29.003Z,11.24
2023-02-23T12:28:42.351Z,11.27
2023-02-23T12:33:48.667Z,11.40
2023-02-23T12:39:04.711Z,11.51
2023-02-23T12:44:32.214Z,11.58
2023-02-23T12:49:57.545Z,11.60
2023-02-23T12:55:00.948Z,11.61
2023-02-23T13:00:30.689Z,11.65
2023-02-23T13:05:39.685Z,11.74
2023-02-23T13:11:07.152Z,11.80
2023-02-23T13:16:33.062Z,11.87
2023-02-23T13:21:40.599Z,11.90
2023-02-23T13:27:03.497Z,11.92
2023-02-23T13:32:16.351Z,11.95
2023-02-23T13:37:26.393Z,11.99
2023-02-23T13:43:07.214Z,12.04
2023-02-23T13:48:28.185Z,12.06
2023-02-23T13:54:12.023Z,12.21
2023-02-23T13:59:46.122Z,12.33
2023-02-23T14:04:54.005Z,12.40
2023-02-23T14:10:06.672Z,12.36
2023-02-23T14:15:28.304Z,12.26
2023-02-23T14:20:39.677Z,12.19
2023-02-23T14:25:55.160Z,12.11
2023-02-23T14:31:11.516Z,12.01
2023-02-23T14:36:22.328Z,11.88
2023-02-23T14:41:35.446Z,11.71
2023-02-23T14:46:38.284Z,11.55
2023-02-23T14:52:08.187Z,11.36
2023-02-23T14:57:18.540Z,11.14
2023-02-23T15:02:24.300Z,10.93
2023-02-23T15:07:40.761Z,10.81
2023-02-23T15:12:43.323Z,10.69
2023-02-23T15:17:47.802Z,10.54
2023-02-23T15:22:55.142Z,10.40
2023-02-23T15:28:00.386Z,10.30
2023-02-23T15:33:12.360Z,10.17
2023-02-23T15:38:42.997Z,10.04
2023-02-23T15:43:46.163Z,9.90
2023-02-23T15:48:50.434Z,9.74
2023-02-23T15:53:54.102Z,9.58
2023-02-23T15:59:13.814Z,9.45
2023-02-23T16:04:19.637Z,9.33
2023-02-23T16:09:23.888Z,9.18
2023-02-23T16:14:30.711Z,9.01
2023-02-23T16:19:32.746Z,8.89
2023-02-23T16:24:37.493Z,8.77
2023-02-23T16:29:42.020Z,8.68
2023-02-23T16:35:00.954Z,8.59
2023-02-23T16:40:03.340Z,8.45
2023-02-23T16:45:16.063Z,8.31
2023-02-23T16:50:24.391Z,8.20
2023-02-23T16:55:28.184Z,8.14
2023-02-23T17:00:33.371Z,8.16
2023-02-23T17:05:35.429Z,8.19
2023-02-23T17:10:38.002Z,8.19
2023-02-23T17:15:48.034Z,8.20
2023-02-23T17:20:51.413Z,8.20
2023-02-23T17:25:55.937Z,8.20
2023-02-23T17:30:58.278Z,8.20
2023-02-23T17:36:05.085Z,8.20
2023-02-23T17:41:14.981Z,8.21
2023-02-23T17:46:17.479Z,8.21
2023-02-23T17:51:22.631Z,8.20
2023-02-23T17:56:24.921Z,8.17
2023-02-23T18:01:27.276Z,8.14
2023-02-23T18:06:30.830Z,8.13
2023-02-23T18:11:37.428Z,8.12
2023-02-23T18:16:46.574Z,8.11
2023-02-23T18:21:48.821Z,8.11
2023-02-23T18:26:51.602Z,8.10
2023-02-23T18:31:53.707Z,8.08
2023-02-23T18:37:02.233Z,8.07
2023-02-23T18:42:05.039Z,8.06
2023-02-23T18:47:17.225Z,8.06
2023-02-23T18:52:19.791Z,8.06
2023-02-23T18:57:23.631Z,8.02
2023-02-23T19:02:27.512Z,8.00
2023-02-23T19:07:30.860Z,7.96
2023-02-23T19:12:33.479Z,7.95
2023-02-23T19:17:36.791Z,7.92
2023-02-23T19:22:41.355Z,7.88
2023-02-23T19:27:43.701Z,7.83
2023-02-23T19:32:45.973Z,7.80
2023-02-23T19:37:50.552Z,7.78
2023-02-23T19:42:53.323Z,7.78
2023-02-23T19:47:55.594Z,7.79
2023-02-23T19:52:58.138Z,7.79
2023-02-23T19:58:03.179Z,7.84
2023-02-23T20:03:07.037Z,7.92
2023-02-23T20:08:10.118Z,8.04
2023-02-23T20:13:16.005Z,8.15
2023-02-23T20:18:21.176Z,8.26
2023-02-23T20:23:25.992Z,8.31
2023-02-23T20:28:28.426Z,8.35
2023-02-23T20:33:31.708Z,8.39
2023-02-23T20:38:33.956Z,8.39
2023-02-23T20:43:38.501Z,8.38
2023-02-23T20:48:41.071Z,8.38
2023-02-23T20:53:46.556Z,8.38
2023-02-23T20:58:48.511Z,8.36
2023-02-23T21:03:51.676Z,8.33
2023-02-23T21:09:03.211Z,8.31
2023-02-23T21:14:08.393Z,8.29
2023-02-23T21:19:11.408Z,8.26
2023-02-23T21:24:15.245Z,8.24
2023-02-23T21:29:18.138Z,8.19
2023-02-23T21:34:20.294Z,8.14
2023-02-23T21:39:22.995Z,8.11
2023-02-23T21:44:25.134Z,8.07
2023-02-23T21:49:27.328Z,8.02
2023-02-23T21:54:29.287Z,7.99
2023-02-23T21:59:34.633Z,7.98
2023-02-23T22:04:37.283Z,7.95
2023-02-23T22:09:39.863Z,7.91
2023-02-23T22:14:44.802Z,7.89
2023-02-23T22:19:50.419Z,7.86
2023-02-23T22:24:52.370Z,7.84
2023-02-23T22:29:54.302Z,7.82
2023-02-23T22:34:56.283Z,7.78
2023-02-23T22:40:00.291Z,7.75
2023-02-23T22:45:08.477Z,7.72
2023-02-23T22:50:13.967Z,7.69
2023-02-23T22:55:16.175Z,7.65
2023-02-23T23:00:18.839Z,7.62
2023-02-23T23:05:21.748Z,7.58
2023-02-23T23:10:27.103Z,7.57
2023-02-23T23:15:29.852Z,7.56
2023-02-23T23:20:32.071Z,7.53
2023-02-23T23:25:34.128Z,7.50
2023-02-23T23:30:36.197Z,7.47
2023-02-23T23:35:38.282Z,7.46
2023-02-23T23:40:47.025Z,7.41
2023-02-23T23:45:51.767Z,7.37
2023-02-23T23:50:56.247Z,7.33
2023-02-23T23:56:05.557Z,7.31
